sensor_id;sensor_type;location;lat;lon;timestamp;temperature;humidity
5846;DHT22;2949;50.778;7.094;2023-03-14T00:01:12;10.70;99.90
5846;DHT22;2949;50.778;7.094;2023-03-14T00:03:37;10.60;99.90
5846;DHT22;2949;50.778;7.094;2023-03-14T00:06:04;10.50;99.90
5846;DHT22;2949;50.778;7.094;2023-03-14T00:08:30;10.40;99.90
5846;DHT22;2949;50.778;7.094;2023-03-14T00:10:56;10.30;99.90
5846;DHT22;2949;50.778;7.094;2023-03-14T00:13:23;10.20;99.90
5846;DHT22;2949;50.778;7.094;2023-03-14T00:15:49;10.10;99.90
5846;DHT22;2949;50.778;7.094;2023-03-14T00:18:14;10.10;99.90
5846;DHT22;2949;50.778;7.094;2023-03-14T00:20:40;10.20;99.90
5846;DHT22;2949;50.778;7.094;2023-03-14T00:23:05;10.30;99.90
5846;DHT22;2949;50.778;7.094;2023-03-14T00:25:31;10.30;99.90
5846;DHT22;2949;50.778;7.094;2023-03-14T00:27:56;10.40;99.90
5846;DHT22;2949;50.778;7.094;2023-03-14T00:30:22;10.60;99.90
5846;DHT22;2949;50.778;7.094;2023-03-14T00:32:47;10.80;99.90
5846;DHT22;2949;50.778;7.094;2023-03-14T00:35:13;10.90;99.90
5846;DHT22;2949;50.778;7.094;2023-03-14T00:37:38;11.00;99.90
5846;DHT22;2949;50.778;7.094;2023-03-14T00:40:04;11.10;99.90
5846;DHT22;2949;50.778;7.094;2023-03-14T00:42:32;11.10;99.90
5846;DHT22;2949;50.778;7.094;2023-03-14T00:44:58;11.20;99.90
5846;DHT22;2949;50.778;7.094;2023-03-14T00:47:23;11.30;99.90
5846;DHT22;2949;50.778;7.094;2023-03-14T00:49:49;11.30;99.90
5846;DHT22;2949;50.778;7.094;2023-03-14T00:52:14;11.30;99.90
5846;DHT22;2949;50.778;7.094;2023-03-14T00:54:40;11.30;99.90
5846;DHT22;2949;50.778;7.094;2023-03-14T00:57:06;11.30;99.90
5846;DHT22;2949;50.778;7.094;2023-03-14T00:59:31;11.30;99.90
5846;DHT22;2949;50.778;7.094;2023-03-14T01:01:57;11.30;99.90
5846;DHT22;2949;50.778;7.094;2023-03-14T01:04:22;11.30;99.90
5846;DHT22;2949;50.778;7.094;2023-03-14T01:06:48;11.30;99.90
5846;DHT22;2949;50.778;7.094;2023-03-14T01:09:13;11.40;99.90
5846;DHT22;2949;50.778;7.094;2023-03-14T01:11:39;11.40;99.90
5846;DHT22;2949;50.778;7.094;2023-03-14T01:14:04;11.40;99.90
5846;DHT22;2949;50.778;7.094;2023-03-14T01:16:32;11.40;99.90
5846;DHT22;2949;50.778;7.094;2023-03-14T01:18:58;11.40;99.90
5846;DHT22;2949;50.778;7.094;2023-03-14T01:21:30;11.40;99.90
5846;DHT22;2949;50.778;7.094;2023-03-14T01:23:57;11.40;99.90
5846;DHT22;2949;50.778;7.094;2023-03-14T01:26:25;11.40;99.90
5846;DHT22;2949;50.778;7.094;2023-03-14T01:28:53;11.30;99.90
5846;DHT22;2949;50.778;7.094;2023-03-14T01:31:19;11.30;99.90
5846;DHT22;2949;50.778;7.094;2023-03-14T01:33:45;11.20;99.90
5846;DHT22;2949;50.778;7.094;2023-03-14T01:36:11;11.20;99.90
5846;DHT22;2949;50.778;7.094;2023-03-14T01:38:38;11.20;99.90
5846;DHT22;2949;50.778;7.094;2023-03-14T01:41:06;11.20;99.90
5846;DHT22;2949;50.778;7.094;2023-03-14T01:43:32;11.10;99.90
5846;DHT22;2949;50.778;7.094;2023-03-14T01:48:37;11.00;99.90
5846;DHT22;2949;50.778;7.094;2023-03-14T01:51:07;10.90;99.90
5846;DHT22;2949;50.778;7.094;2023-03-14T01:53:35;11.00;99.90
5846;DHT22;2949;50.778;7.094;2023-03-14T01:56:02;10.90;99.90
5846;DHT22;2949;50.778;7.094;2023-03-14T01:58:30;10.90;99.90
5846;DHT22;2949;50.778;7.094;2023-03-14T02:00:59;10.90;99.90
5846;DHT22;2949;50.778;7.094;2023-03-14T02:03:27;10.90;99.90
5846;DHT22;2949;50.778;7.094;2023-03-14T02:05:56;10.90;99.90
5846;DHT22;2949;50.778;7.094;2023-03-14T02:08:26;10.80;99.90
5846;DHT22;2949;50.778;7.094;2023-03-14T02:10:52;10.60;99.90
5846;DHT22;2949;50.778;7.094;2023-03-14T02:13:19;10.40;99.90
5846;DHT22;2949;50.778;7.094;2023-03-14T02:15:47;10.20;99.90
5846;DHT22;2949;50.778;7.094;2023-03-14T02:18:13;10.10;99.90
5846;DHT22;2949;50.778;7.094;2023-03-14T02:26:11;9.70;99.90
5846;DHT22;2949;50.778;7.094;2023-03-14T02:28:40;9.60;99.90
5846;DHT22;2949;50.778;7.094;2023-03-14T02:31:06;9.50;99.90
5846;DHT22;2949;50.778;7.094;2023-03-14T02:33:34;9.40;99.90
5846;DHT22;2949;50.778;7.094;2023-03-14T02:36:04;9.40;99.90
5846;DHT22;2949;50.778;7.094;2023-03-14T02:38:41;9.40;99.90
5846;DHT22;2949;50.778;7.094;2023-03-14T02:41:08;9.40;99.90
5846;DHT22;2949;50.778;7.094;2023-03-14T02:43:34;9.30;99.90
5846;DHT22;2949;50.778;7.094;2023-03-14T02:46:01;9.20;99.90
5846;DHT22;2949;50.778;7.094;2023-03-14T02:48:35;9.10;99.90
5846;DHT22;2949;50.778;7.094;2023-03-14T02:51:01;9.00;99.90
5846;DHT22;2949;50.778;7.094;2023-03-14T02:53:30;9.00;99.90
5846;DHT22;2949;50.778;7.094;2023-03-14T02:55:56;8.90;99.90
5846;DHT22;2949;50.778;7.094;2023-03-14T02:58:22;8.80;99.90
5846;DHT22;2949;50.778;7.094;2023-03-14T03:00:47;8.70;99.90
5846;DHT22;2949;50.778;7.094;2023-03-14T03:03:13;8.60;99.90
5846;DHT22;2949;50.778;7.094;2023-03-14T03:05:38;8.50;99.90
5846;DHT22;2949;50.778;7.094;2023-03-14T03:08:04;8.50;99.90
5846;DHT22;2949;50.778;7.094;2023-03-14T03:10:30;8.50;99.90
5846;DHT22;2949;50.778;7.094;2023-03-14T03:12:56;8.50;99.90
5846;DHT22;2949;50.778;7.094;2023-03-14T03:15:22;8.60;99.90
5846;DHT22;2949;50.778;7.094;2023-03-14T03:17:48;8.70;99.90
5846;DHT22;2949;50.778;7.094;2023-03-14T03:20:13;8.70;99.90
5846;DHT22;2949;50.778;7.094;2023-03-14T03:22:39;8.80;99.90
5846;DHT22;2949;50.778;7.094;2023-03-14T03:25:06;8.90;99.90
5846;DHT22;2949;50.778;7.094;2023-03-14T03:27:32;9.00;99.90
5846;DHT22;2949;50.778;7.094;2023-03-14T03:29:59;9.00;99.90
5846;DHT22;2949;50.778;7.094;2023-03-14T03:32:25;9.00;99.90
5846;DHT22;2949;50.778;7.094;2023-03-14T03:34:51;9.10;99.90
5846;DHT22;2949;50.778;7.094;2023-03-14T03:37:16;9.10;99.90
5846;DHT22;2949;50.778;7.094;2023-03-14T03:39:42;9.10;99.90
5846;DHT22;2949;50.778;7.094;2023-03-14T03:42:08;9.20;99.90
5846;DHT22;2949;50.778;7.094;2023-03-14T03:44:33;9.40;99.90
5846;DHT22;2949;50.778;7.094;2023-03-14T03:46:59;9.50;99.90
5846;DHT22;2949;50.778;7.094;2023-03-14T03:49:29;9.70;99.90
5846;DHT22;2949;50.778;7.094;2023-03-14T03:51:54;9.70;99.90
5846;DHT22;2949;50.778;7.094;2023-03-14T03:54:19;9.80;99.90
5846;DHT22;2949;50.778;7.094;2023-03-14T03:56:45;9.80;99.90
5846;DHT22;2949;50.778;7.094;2023-03-14T03:59:10;9.90;99.90
5846;DHT22;2949;50.778;7.094;2023-03-14T04:01:36;10.00;99.90
5846;DHT22;2949;50.778;7.094;2023-03-14T04:04:02;10.10;99.90
5846;DHT22;2949;50.778;7.094;2023-03-14T04:06:27;10.10;99.90
5846;DHT22;2949;50.778;7.094;2023-03-14T04:08:54;10.00;99.90
5846;DHT22;2949;50.778;7.094;2023-03-14T04:11:19;10.10;99.90
5846;DHT22;2949;50.778;7.094;2023-03-14T04:13:45;10.10;99.90
5846;DHT22;2949;50.778;7.094;2023-03-14T04:16:22;10.10;99.90
5846;DHT22;2949;50.778;7.094;2023-03-14T04:18:48;10.00;99.90
5846;DHT22;2949;50.778;7.094;2023-03-14T04:21:13;10.00;99.90
5846;DHT22;2949;50.778;7.094;2023-03-14T04:23:39;10.10;99.90
5846;DHT22;2949;50.778;7.094;2023-03-14T04:26:04;10.20;99.90
5846;DHT22;2949;50.778;7.094;2023-03-14T04:28:30;10.30;99.90
5846;DHT22;2949;50.778;7.094;2023-03-14T04:30:56;10.30;99.90
5846;DHT22;2949;50.778;7.094;2023-03-14T04:33:21;10.40;99.90
5846;DHT22;2949;50.778;7.094;2023-03-14T04:35:47;10.30;99.90
5846;DHT22;2949;50.778;7.094;2023-03-14T04:38:13;10.30;99.90
5846;DHT22;2949;50.778;7.094;2023-03-14T04:40:42;10.40;99.90
5846;DHT22;2949;50.778;7.094;2023-03-14T04:43:10;10.40;99.90
5846;DHT22;2949;50.778;7.094;2023-03-14T04:45:36;10.40;99.90
5846;DHT22;2949;50.778;7.094;2023-03-14T04:48:02;10.40;99.90
5846;DHT22;2949;50.778;7.094;2023-03-14T04:50:28;10.40;99.90
5846;DHT22;2949;50.778;7.094;2023-03-14T04:52:53;10.40;99.90
5846;DHT22;2949;50.778;7.094;2023-03-14T04:55:19;10.30;99.90
5846;DHT22;2949;50.778;7.094;2023-03-14T04:57:44;10.20;99.90
5846;DHT22;2949;50.778;7.094;2023-03-14T05:00:10;10.10;99.90
5846;DHT22;2949;50.778;7.094;2023-03-14T05:02:36;10.00;99.90
5846;DHT22;2949;50.778;7.094;2023-03-14T05:05:02;9.90;99.90
5846;DHT22;2949;50.778;7.094;2023-03-14T05:07:27;9.90;99.90
5846;DHT22;2949;50.778;7.094;2023-03-14T05:09:53;9.90;99.90
5846;DHT22;2949;50.778;7.094;2023-03-14T05:12:19;9.90;99.90
5846;DHT22;2949;50.778;7.094;2023-03-14T05:14:45;9.80;99.90
5846;DHT22;2949;50.778;7.094;2023-03-14T05:17:11;9.80;99.90
5846;DHT22;2949;50.778;7.094;2023-03-14T05:19:38;9.80;99.90
5846;DHT22;2949;50.778;7.094;2023-03-14T05:22:04;9.80;99.90
5846;DHT22;2949;50.778;7.094;2023-03-14T05:24:29;9.80;99.90
5846;DHT22;2949;50.778;7.094;2023-03-14T05:26:55;9.70;99.90
5846;DHT22;2949;50.778;7.094;2023-03-14T05:29:20;9.70;99.90
5846;DHT22;2949;50.778;7.094;2023-03-14T05:31:46;9.70;99.90
5846;DHT22;2949;50.778;7.094;2023-03-14T05:34:11;9.70;99.90
5846;DHT22;2949;50.778;7.094;2023-03-14T05:36:38;9.70;99.90
5846;DHT22;2949;50.778;7.094;2023-03-14T05:39:03;9.70;99.90
5846;DHT22;2949;50.778;7.094;2023-03-14T05:41:29;9.70;99.90
5846;DHT22;2949;50.778;7.094;2023-03-14T05:43:54;9.70;99.90
5846;DHT22;2949;50.778;7.094;2023-03-14T05:46:20;9.70;99.90
5846;DHT22;2949;50.778;7.094;2023-03-14T05:48:45;9.80;99.90
5846;DHT22;2949;50.778;7.094;2023-03-14T05:51:11;9.80;99.90
5846;DHT22;2949;50.778;7.094;2023-03-14T05:53:37;9.70;99.90
5846;DHT22;2949;50.778;7.094;2023-03-14T05:56:02;9.70;99.90
5846;DHT22;2949;50.778;7.094;2023-03-14T05:58:28;9.70;99.90
5846;DHT22;2949;50.778;7.094;2023-03-14T06:00:53;9.70;99.90
5846;DHT22;2949;50.778;7.094;2023-03-14T06:03:19;9.80;99.90
5846;DHT22;2949;50.778;7.094;2023-03-14T06:05:44;9.80;99.90
5846;DHT22;2949;50.778;7.094;2023-03-14T06:08:10;9.80;99.90
5846;DHT22;2949;50.778;7.094;2023-03-14T06:10:36;9.90;99.90
5846;DHT22;2949;50.778;7.094;2023-03-14T06:13:02;9.90;99.90
5846;DHT22;2949;50.778;7.094;2023-03-14T06:15:28;9.90;99.90
5846;DHT22;2949;50.778;7.094;2023-03-14T06:17:55;9.90;99.90
5846;DHT22;2949;50.778;7.094;2023-03-14T06:20:20;9.90;99.90
5846;DHT22;2949;50.778;7.094;2023-03-14T06:22:46;9.90;99.90
5846;DHT22;2949;50.778;7.094;2023-03-14T06:25:12;9.90;99.90
5846;DHT22;2949;50.778;7.094;2023-03-14T06:27:37;9.90;99.90
5846;DHT22;2949;50.778;7.094;2023-03-14T06:30:03;9.90;99.90
5846;DHT22;2949;50.778;7.094;2023-03-14T06:32:29;9.90;99.90
5846;DHT22;2949;50.778;7.094;2023-03-14T06:34:54;9.90;99.90
5846;DHT22;2949;50.778;7.094;2023-03-14T06:37:20;9.90;99.90
5846;DHT22;2949;50.778;7.094;2023-03-14T06:39:45;10.00;99.90
5846;DHT22;2949;50.778;7.094;2023-03-14T06:42:11;10.20;99.90
5846;DHT22;2949;50.778;7.094;2023-03-14T06:44:36;10.30;99.90
5846;DHT22;2949;50.778;7.094;2023-03-14T06:47:02;10.30;99.90
5846;DHT22;2949;50.778;7.094;2023-03-14T06:49:28;10.40;99.90
5846;DHT22;2949;50.778;7.094;2023-03-14T06:51:53;10.40;99.90
5846;DHT22;2949;50.778;7.094;2023-03-14T06:54:19;10.50;99.90
5846;DHT22;2949;50.778;7.094;2023-03-14T06:56:44;10.60;99.90
5846;DHT22;2949;50.778;7.094;2023-03-14T06:59:10;10.70;99.90
5846;DHT22;2949;50.778;7.094;2023-03-14T07:01:35;10.90;99.90
5846;DHT22;2949;50.778;7.094;2023-03-14T07:04:02;11.10;99.90
5846;DHT22;2949;50.778;7.094;2023-03-14T07:06:28;11.40;99.90
5846;DHT22;2949;50.778;7.094;2023-03-14T07:08:56;11.70;99.90
5846;DHT22;2949;50.778;7.094;2023-03-14T07:11:23;12.00;99.90
5846;DHT22;2949;50.778;7.094;2023-03-14T07:13:48;12.00;99.90
5846;DHT22;2949;50.778;7.094;2023-03-14T07:16:14;12.20;99.90
5846;DHT22;2949;50.778;7.094;2023-03-14T07:18:39;12.20;99.90
5846;DHT22;2949;50.778;7.094;2023-03-14T07:21:08;12.30;99.90
5846;DHT22;2949;50.778;7.094;2023-03-14T07:23:34;14.40;99.90
5846;DHT22;2949;50.778;7.094;2023-03-14T09:25:25;17.20;99.90
5846;DHT22;2949;50.778;7.094;2023-03-14T09:27:50;12.20;99.90
5846;DHT22;2949;50.778;7.094;2023-03-14T09:30:16;12.00;99.90
5846;DHT22;2949;50.778;7.094;2023-03-14T09:32:42;12.00;99.90
5846;DHT22;2949;50.778;7.094;2023-03-14T09:35:08;12.10;99.90
5846;DHT22;2949;50.778;7.094;2023-03-14T09:37:35;12.20;99.90
5846;DHT22;2949;50.778;7.094;2023-03-14T09:40:00;12.30;99.90
5846;DHT22;2949;50.778;7.094;2023-03-14T09:42:29;12.20;99.90
5846;DHT22;2949;50.778;7.094;2023-03-14T09:44:59;12.20;99.90
5846;DHT22;2949;50.778;7.094;2023-03-14T09:47:26;12.20;99.90
5846;DHT22;2949;50.778;7.094;2023-03-14T09:49:52;12.10;99.90
5846;DHT22;2949;50.778;7.094;2023-03-14T09:52:23;12.00;99.90
5846;DHT22;2949;50.778;7.094;2023-03-14T09:55:13;11.90;99.90
5846;DHT22;2949;50.778;7.094;2023-03-14T09:57:39;11.80;99.90
5846;DHT22;2949;50.778;7.094;2023-03-14T10:00:16;11.50;99.90
5846;DHT22;2949;50.778;7.094;2023-03-14T10:02:49;10.50;99.90
5846;DHT22;2949;50.778;7.094;2023-03-14T10:05:18;9.80;99.90
5846;DHT22;2949;50.778;7.094;2023-03-14T10:07:43;9.50;99.90
5846;DHT22;2949;50.778;7.094;2023-03-14T10:10:27;9.40;99.90
5846;DHT22;2949;50.778;7.094;2023-03-14T10:12:57;9.30;99.90
5846;DHT22;2949;50.778;7.094;2023-03-14T10:15:41;9.20;99.90
5846;DHT22;2949;50.778;7.094;2023-03-14T10:18:12;9.10;99.90
5846;DHT22;2949;50.778;7.094;2023-03-14T10:20:40;9.00;99.90
5846;DHT22;2949;50.778;7.094;2023-03-14T10:25:41;8.90;99.90
5846;DHT22;2949;50.778;7.094;2023-03-14T10:30:49;8.80;99.90
5846;DHT22;2949;50.778;7.094;2023-03-14T10:35:43;8.80;99.90
5846;DHT22;2949;50.778;7.094;2023-03-14T10:38:13;9.00;99.90
5846;DHT22;2949;50.778;7.094;2023-03-14T10:40:41;9.10;99.90
5846;DHT22;2949;50.778;7.094;2023-03-14T10:43:18;9.10;99.90
5846;DHT22;2949;50.778;7.094;2023-03-14T10:45:52;9.00;99.90
5846;DHT22;2949;50.778;7.094;2023-03-14T10:48:37;8.80;99.90
5846;DHT22;2949;50.778;7.094;2023-03-14T10:51:07;8.70;99.90
5846;DHT22;2949;50.778;7.094;2023-03-14T10:53:49;8.60;99.90
5846;DHT22;2949;50.778;7.094;2023-03-14T10:56:20;8.70;99.90
5846;DHT22;2949;50.778;7.094;2023-03-14T10:58:48;8.70;99.90
5846;DHT22;2949;50.778;7.094;2023-03-14T11:01:33;8.80;99.90
5846;DHT22;2949;50.778;7.094;2023-03-14T11:04:26;8.80;99.90
5846;DHT22;2949;50.778;7.094;2023-03-14T11:07:13;8.80;99.90
5846;DHT22;2949;50.778;7.094;2023-03-14T11:09:47;8.80;99.90
5846;DHT22;2949;50.778;7.094;2023-03-14T11:12:41;8.80;99.90
5846;DHT22;2949;50.778;7.094;2023-03-14T11:15:30;8.80;99.90
5846;DHT22;2949;50.778;7.094;2023-03-14T11:18:09;8.80;99.90
5846;DHT22;2949;50.778;7.094;2023-03-14T11:20:46;8.70;99.90
5846;DHT22;2949;50.778;7.094;2023-03-14T11:29:08;9.30;99.90
5846;DHT22;2949;50.778;7.094;2023-03-14T11:31:39;9.80;99.90
5846;DHT22;2949;50.778;7.094;2023-03-14T11:36:51;10.40;99.90
5846;DHT22;2949;50.778;7.094;2023-03-14T11:39:20;10.90;99.90
5846;DHT22;2949;50.778;7.094;2023-03-14T11:41:47;11.30;99.90
5846;DHT22;2949;50.778;7.094;2023-03-14T11:44:22;11.60;99.90
5846;DHT22;2949;50.778;7.094;2023-03-14T11:49:32;11.70;99.90
5846;DHT22;2949;50.778;7.094;2023-03-14T11:52:16;11.50;99.90
5846;DHT22;2949;50.778;7.094;2023-03-14T11:54:45;11.60;99.90
5846;DHT22;2949;50.778;7.094;2023-03-14T11:57:16;11.50;99.90
5846;DHT22;2949;50.778;7.094;2023-03-14T11:59:55;11.30;99.90
5846;DHT22;2949;50.778;7.094;2023-03-14T12:02:26;11.00;99.90
5846;DHT22;2949;50.778;7.094;2023-03-14T12:11:04;10.30;99.90
5846;DHT22;2949;50.778;7.094;2023-03-14T12:13:37;9.60;99.90
5846;DHT22;2949;50.778;7.094;2023-03-14T12:16:35;8.80;99.90
5846;DHT22;2949;50.778;7.094;2023-03-14T12:19:14;8.30;99.90
5846;DHT22;2949;50.778;7.094;2023-03-14T12:21:48;8.00;99.90
5846;DHT22;2949;50.778;7.094;2023-03-14T12:24:26;7.90;99.90
5846;DHT22;2949;50.778;7.094;2023-03-14T12:26:58;7.80;99.90
5846;DHT22;2949;50.778;7.094;2023-03-14T12:29:24;7.70;99.90
5846;DHT22;2949;50.778;7.094;2023-03-14T12:32:24;7.80;99.90
5846;DHT22;2949;50.778;7.094;2023-03-14T12:34:50;7.80;99.90
5846;DHT22;2949;50.778;7.094;2023-03-14T12:40:15;7.80;99.90
5846;DHT22;2949;50.778;7.094;2023-03-14T12:42:58;7.80;99.90
5846;DHT22;2949;50.778;7.094;2023-03-14T12:45:32;7.90;99.90
5846;DHT22;2949;50.778;7.094;2023-03-14T12:48:26;7.90;99.90
5846;DHT22;2949;50.778;7.094;2023-03-14T12:51:00;7.80;99.90
5846;DHT22;2949;50.778;7.094;2023-03-14T12:56:45;7.70;99.90
5846;DHT22;2949;50.778;7.094;2023-03-14T12:59:19;7.70;99.90
5846;DHT22;2949;50.778;7.094;2023-03-14T13:04:36;7.80;99.90
5846;DHT22;2949;50.778;7.094;2023-03-14T13:12:57;7.90;99.90
5846;DHT22;2949;50.778;7.094;2023-03-14T13:15:35;7.90;99.90
5846;DHT22;2949;50.778;7.094;2023-03-14T13:18:11;7.80;99.90
5846;DHT22;2949;50.778;7.094;2023-03-14T13:20:41;7.70;99.90
5846;DHT22;2949;50.778;7.094;2023-03-14T13:23:24;7.50;99.90
5846;DHT22;2949;50.778;7.094;2023-03-14T13:25:51;7.40;99.90
5846;DHT22;2949;50.778;7.094;2023-03-14T13:28:17;7.30;99.90
5846;DHT22;2949;50.778;7.094;2023-03-14T13:30:45;7.30;99.90
5846;DHT22;2949;50.778;7.094;2023-03-14T13:33:20;7.30;99.90
5846;DHT22;2949;50.778;7.094;2023-03-14T13:35:55;7.30;99.90
5846;DHT22;2949;50.778;7.094;2023-03-14T13:38:23;7.30;99.90
5846;DHT22;2949;50.778;7.094;2023-03-14T13:40:50;7.30;99.90
5846;DHT22;2949;50.778;7.094;2023-03-14T13:43:23;7.30;99.90
5846;DHT22;2949;50.778;7.094;2023-03-14T13:45:55;7.40;99.90
5846;DHT22;2949;50.778;7.094;2023-03-14T13:48:22;7.30;99.90
5846;DHT22;2949;50.778;7.094;2023-03-14T13:51:07;7.40;99.90
5846;DHT22;2949;50.778;7.094;2023-03-14T13:53:53;7.40;99.90
5846;DHT22;2949;50.778;7.094;2023-03-14T13:56:20;7.60;99.90
5846;DHT22;2949;50.778;7.094;2023-03-14T13:58:47;7.80;99.90
5846;DHT22;2949;50.778;7.094;2023-03-14T14:01:25;8.10;99.90
5846;DHT22;2949;50.778;7.094;2023-03-14T14:03:54;8.20;99.90
5846;DHT22;2949;50.778;7.094;2023-03-14T14:06:35;8.30;99.90
5846;DHT22;2949;50.778;7.094;2023-03-14T14:09:17;8.10;99.90
5846;DHT22;2949;50.778;7.094;2023-03-14T14:11:48;7.90;99.90
5846;DHT22;2949;50.778;7.094;2023-03-14T14:14:31;7.60;99.90
5846;DHT22;2949;50.778;7.094;2023-03-14T14:16:58;7.20;99.90
5846;DHT22;2949;50.778;7.094;2023-03-14T14:19:27;7.00;99.90
5846;DHT22;2949;50.778;7.094;2023-03-14T14:21:55;6.80;99.90
5846;DHT22;2949;50.778;7.094;2023-03-14T14:24:24;6.70;99.90
5846;DHT22;2949;50.778;7.094;2023-03-14T14:26:51;6.70;99.90
5846;DHT22;2949;50.778;7.094;2023-03-14T14:29:27;6.70;99.90
5846;DHT22;2949;50.778;7.094;2023-03-14T14:32:20;6.60;99.90
5846;DHT22;2949;50.778;7.094;2023-03-14T14:34:55;6.60;99.90
5846;DHT22;2949;50.778;7.094;2023-03-14T14:37:41;6.70;99.90
5846;DHT22;2949;50.778;7.094;2023-03-14T14:42:44;6.90;99.90
5846;DHT22;2949;50.778;7.094;2023-03-14T14:45:16;6.90;99.90
5846;DHT22;2949;50.778;7.094;2023-03-14T14:48:11;7.00;99.90
5846;DHT22;2949;50.778;7.094;2023-03-14T14:50:48;7.00;99.90
5846;DHT22;2949;50.778;7.094;2023-03-14T14:55:58;6.90;99.90
5846;DHT22;2949;50.778;7.094;2023-03-14T14:58:36;6.90;99.90
5846;DHT22;2949;50.778;7.094;2023-03-14T15:01:07;6.90;99.90
5846;DHT22;2949;50.778;7.094;2023-03-14T15:03:34;7.00;99.90
5846;DHT22;2949;50.778;7.094;2023-03-14T15:06:01;7.00;99.90
5846;DHT22;2949;50.778;7.094;2023-03-14T15:08:27;7.00;99.90
5846;DHT22;2949;50.778;7.094;2023-03-14T15:10:54;7.00;99.90
5846;DHT22;2949;50.778;7.094;2023-03-14T15:13:20;7.10;99.90
5846;DHT22;2949;50.778;7.094;2023-03-14T15:15:49;7.10;99.90
5846;DHT22;2949;50.778;7.094;2023-03-14T15:18:21;7.10;99.90
5846;DHT22;2949;50.778;7.094;2023-03-14T15:20:47;7.10;99.90
5846;DHT22;2949;50.778;7.094;2023-03-14T15:23:15;7.00;99.90
5846;DHT22;2949;50.778;7.094;2023-03-14T15:25:41;7.10;99.90
5846;DHT22;2949;50.778;7.094;2023-03-14T15:28:17;7.20;99.90
5846;DHT22;2949;50.778;7.094;2023-03-14T15:30:46;7.10;99.90
5846;DHT22;2949;50.778;7.094;2023-03-14T15:33:12;7.00;99.90
5846;DHT22;2949;50.778;7.094;2023-03-14T15:35:37;7.00;99.90
5846;DHT22;2949;50.778;7.094;2023-03-14T15:38:03;7.10;99.90
5846;DHT22;2949;50.778;7.094;2023-03-14T15:40:29;7.10;99.90
5846;DHT22;2949;50.778;7.094;2023-03-14T15:42:55;7.10;99.90
5846;DHT22;2949;50.778;7.094;2023-03-14T15:45:20;7.10;99.90
5846;DHT22;2949;50.778;7.094;2023-03-14T15:47:46;7.00;99.90
5846;DHT22;2949;50.778;7.094;2023-03-14T15:50:12;7.00;99.90
5846;DHT22;2949;50.778;7.094;2023-03-14T15:52:37;7.00;99.90
5846;DHT22;2949;50.778;7.094;2023-03-14T15:55:03;7.00;99.90
5846;DHT22;2949;50.778;7.094;2023-03-14T15:57:29;6.90;99.90
5846;DHT22;2949;50.778;7.094;2023-03-14T15:59:54;7.00;99.90
5846;DHT22;2949;50.778;7.094;2023-03-14T16:02:20;7.00;99.90
5846;DHT22;2949;50.778;7.094;2023-03-14T16:04:45;6.90;99.90
5846;DHT22;2949;50.778;7.094;2023-03-14T16:07:11;7.00;99.90
5846;DHT22;2949;50.778;7.094;2023-03-14T16:09:36;6.90;99.90
5846;DHT22;2949;50.778;7.094;2023-03-14T16:12:02;6.90;99.90
5846;DHT22;2949;50.778;7.094;2023-03-14T16:14:30;6.90;99.90
5846;DHT22;2949;50.778;7.094;2023-03-14T16:16:55;6.80;99.90
5846;DHT22;2949;50.778;7.094;2023-03-14T16:19:25;6.70;99.90
5846;DHT22;2949;50.778;7.094;2023-03-14T16:21:51;6.60;99.90
5846;DHT22;2949;50.778;7.094;2023-03-14T16:24:17;6.60;99.90
5846;DHT22;2949;50.778;7.094;2023-03-14T16:26:43;6.60;99.90
5846;DHT22;2949;50.778;7.094;2023-03-14T16:29:09;6.50;99.90
5846;DHT22;2949;50.778;7.094;2023-03-14T16:31:35;6.50;99.90
5846;DHT22;2949;50.778;7.094;2023-03-14T16:34:10;6.40;99.90
5846;DHT22;2949;50.778;7.094;2023-03-14T16:36:36;6.40;99.90
5846;DHT22;2949;50.778;7.094;2023-03-14T16:39:02;6.30;99.90
5846;DHT22;2949;50.778;7.094;2023-03-14T16:41:28;6.30;99.90
5846;DHT22;2949;50.778;7.094;2023-03-14T16:43:59;6.20;99.90
5846;DHT22;2949;50.778;7.094;2023-03-14T16:46:27;6.20;99.90
5846;DHT22;2949;50.778;7.094;2023-03-14T16:48:54;6.20;99.90
5846;DHT22;2949;50.778;7.094;2023-03-14T16:51:20;6.20;99.90
5846;DHT22;2949;50.778;7.094;2023-03-14T16:53:46;6.10;99.90
5846;DHT22;2949;50.778;7.094;2023-03-14T16:56:12;6.10;99.90
5846;DHT22;2949;50.778;7.094;2023-03-14T16:58:38;6.10;99.90
5846;DHT22;2949;50.778;7.094;2023-03-14T17:01:08;6.10;99.90
5846;DHT22;2949;50.778;7.094;2023-03-14T17:03:54;6.00;99.90
5846;DHT22;2949;50.778;7.094;2023-03-14T17:06:22;6.00;99.90
5846;DHT22;2949;50.778;7.094;2023-03-14T17:08:48;5.90;99.90
5846;DHT22;2949;50.778;7.094;2023-03-14T17:11:14;5.90;99.90
5846;DHT22;2949;50.778;7.094;2023-03-14T17:13:39;5.90;99.90
5846;DHT22;2949;50.778;7.094;2023-03-14T17:16:06;5.80;99.90
5846;DHT22;2949;50.778;7.094;2023-03-14T17:18:31;5.80;99.90
5846;DHT22;2949;50.778;7.094;2023-03-14T17:20:58;5.80;99.90
5846;DHT22;2949;50.778;7.094;2023-03-14T17:23:25;5.80;99.90
5846;DHT22;2949;50.778;7.094;2023-03-14T17:25:51;5.80;99.90
5846;DHT22;2949;50.778;7.094;2023-03-14T17:28:18;5.70;99.90
5846;DHT22;2949;50.778;7.094;2023-03-14T17:30:44;5.70;99.90
5846;DHT22;2949;50.778;7.094;2023-03-14T17:33:10;5.70;99.90
5846;DHT22;2949;50.778;7.094;2023-03-14T17:35:36;5.70;99.90
5846;DHT22;2949;50.778;7.094;2023-03-14T17:38:02;5.70;99.90
5846;DHT22;2949;50.778;7.094;2023-03-14T17:40:28;5.70;99.90
5846;DHT22;2949;50.778;7.094;2023-03-14T17:42:53;5.70;99.90
5846;DHT22;2949;50.778;7.094;2023-03-14T17:45:19;5.70;99.90
5846;DHT22;2949;50.778;7.094;2023-03-14T17:47:45;5.70;99.90
5846;DHT22;2949;50.778;7.094;2023-03-14T17:50:11;5.70;99.90
5846;DHT22;2949;50.778;7.094;2023-03-14T17:52:37;5.70;99.90
5846;DHT22;2949;50.778;7.094;2023-03-14T17:55:03;5.70;99.90
5846;DHT22;2949;50.778;7.094;2023-03-14T17:57:29;5.80;99.90
5846;DHT22;2949;50.778;7.094;2023-03-14T17:59:55;5.80;99.90
5846;DHT22;2949;50.778;7.094;2023-03-14T18:02:22;5.80;99.90
5846;DHT22;2949;50.778;7.094;2023-03-14T18:04:48;5.80;99.90
5846;DHT22;2949;50.778;7.094;2023-03-14T18:07:14;5.80;99.90
5846;DHT22;2949;50.778;7.094;2023-03-14T18:09:40;5.80;99.90
5846;DHT22;2949;50.778;7.094;2023-03-14T18:12:06;5.80;99.90
5846;DHT22;2949;50.778;7.094;2023-03-14T18:14:33;5.80;99.90
5846;DHT22;2949;50.778;7.094;2023-03-14T18:16:58;5.90;99.90
5846;DHT22;2949;50.778;7.094;2023-03-14T18:19:24;5.90;99.90
5846;DHT22;2949;50.778;7.094;2023-03-14T18:21:49;5.90;99.90
5846;DHT22;2949;50.778;7.094;2023-03-14T18:24:17;5.80;99.90
5846;DHT22;2949;50.778;7.094;2023-03-14T18:26:43;5.80;99.90
5846;DHT22;2949;50.778;7.094;2023-03-14T18:29:08;5.80;99.90
5846;DHT22;2949;50.778;7.094;2023-03-14T18:31:34;5.80;99.90
5846;DHT22;2949;50.778;7.094;2023-03-14T18:34:00;5.90;99.90
5846;DHT22;2949;50.778;7.094;2023-03-14T18:36:26;5.90;99.90
5846;DHT22;2949;50.778;7.094;2023-03-14T18:38:52;5.90;99.90
5846;DHT22;2949;50.778;7.094;2023-03-14T18:41:21;5.90;99.90
5846;DHT22;2949;50.778;7.094;2023-03-14T18:43:47;5.90;99.90
5846;DHT22;2949;50.778;7.094;2023-03-14T18:46:14;5.90;99.90
5846;DHT22;2949;50.778;7.094;2023-03-14T18:48:40;5.80;99.90
5846;DHT22;2949;50.778;7.094;2023-03-14T18:51:14;5.80;99.90
5846;DHT22;2949;50.778;7.094;2023-03-14T18:53:41;5.80;99.90
5846;DHT22;2949;50.778;7.094;2023-03-14T18:56:08;5.80;99.90
5846;DHT22;2949;50.778;7.094;2023-03-14T18:58:36;5.70;99.90
5846;DHT22;2949;50.778;7.094;2023-03-14T19:01:03;5.70;99.90
5846;DHT22;2949;50.778;7.094;2023-03-14T19:03:32;5.70;99.90
5846;DHT22;2949;50.778;7.094;2023-03-14T19:05:58;5.70;99.90
5846;DHT22;2949;50.778;7.094;2023-03-14T19:08:25;5.70;99.90
5846;DHT22;2949;50.778;7.094;2023-03-14T19:10:53;5.70;99.90
5846;DHT22;2949;50.778;7.094;2023-03-14T19:13:20;5.60;99.90